Weather History for Glendive, MT

Change the Weather History Date:

Monday, December 3, 2012

  Actual Average Record
Temperature  
Mean Temperature 42 °F -  
Max Temperature 51 °F 33 °F 51 °F (2012)
Min Temperature 33 °F 15 °F -13 °F (2006)
Degree Days  
Heating Degree Days 23    
Moisture  
Dew Point 23 °F    
Average Humidity 48    
Maximum Humidity 71    
Minimum Humidity 32    
Precipitation  
Precipitation 0.00 in - - ()
Sea Level Pressure  
Sea Level Pressure 29.78 in    
Wind  
Wind Speed 17 mph (West)    
Max Wind Speed 30 mph    
Max Gust Speed 43 mph    
Visibility 10 miles    
Events      
Averages and records for this station are not official NWS values.
T = Trace of Precipitation, MM = Missing Value Source: NWS Daily Summary

Daily Weather History Graph

Daily Weather History Graph

Search for Another Location

Airport:

Trip Planner

Search our weather history database for the weather conditions in past years. The results will help you decide how hot, cold, wet, or windy it might be!

Date:

Astronomy

Dec. 03, 2012 Rise Set
Actual Time 7:27 AM MST 4:10 PM MST
Civil Twilight 6:52 AM MST 4:45 PM MST
Nautical Twilight 6:14 AM MST 5:23 PM MST
Astronomical Twilight 5:37 AM MST 6:00 PM MST
Moon 9:11 PM MST (12/3) 10:42 AM MST (12/3)
Length of Visible Light 9h 52m
Length of Day
8h 42m
Waning Gibbous, 77% of the Moon is Illuminated
Dec 3
Waning Gibbous
Dec 6
Last Quarter
Dec 13
New
Dec 19
First Quarter
Dec 28
Full

Hourly Weather History & Observations

Time (MST) Temp. Windchill Dew Point Humidity Pressure Visibility Wind Dir Wind Speed Gust Speed Precip Events Conditions
12:35 AM 46.4 °F 40.7 °F 35.6 °F 66% 29.52 in 10.0 mi West 12.7 mph - N/A   Mostly Cloudy
12:55 AM 44.6 °F 38.8 °F 35.6 °F 71% 29.53 in 10.0 mi West 11.5 mph - N/A   Mostly Cloudy
1:15 AM 44.6 °F 39.2 °F 35.6 °F 71% 29.55 in 10.0 mi West 10.4 mph - N/A   Overcast
1:35 AM 44.6 °F 38.4 °F 35.6 °F 71% 29.56 in 10.0 mi West 12.7 mph 19.6 mph N/A   Overcast
1:55 AM 44.6 °F 37.4 °F 35.6 °F 71% 29.57 in 10.0 mi West 16.1 mph 20.7 mph N/A   Mostly Cloudy
2:15 AM 44.6 °F 36.9 °F 32.0 °F 61% 29.59 in 10.0 mi West 18.4 mph 24.2 mph N/A   Scattered Clouds
2:35 AM 44.6 °F 36.6 °F 30.2 °F 57% 29.61 in 10.0 mi West 19.6 mph - N/A   Clear
2:55 AM 42.8 °F 33.8 °F 26.6 °F 53% 29.61 in 10.0 mi West 21.9 mph 27.6 mph N/A   Clear
3:15 AM 42.8 °F 34.5 °F 24.8 °F 49% 29.62 in 10.0 mi West 18.4 mph 24.2 mph N/A   Clear
3:35 AM 41.0 °F 32.8 °F 24.8 °F 53% 29.63 in 10.0 mi West 16.1 mph - N/A   Clear
3:55 AM 39.2 °F 30.5 °F 24.8 °F 56% 29.64 in 10.0 mi West 16.1 mph 23.0 mph N/A   Clear
4:15 AM 39.2 °F 30.2 °F 24.8 °F 56% 29.64 in 10.0 mi West 17.3 mph 25.3 mph N/A   Clear
4:35 AM 39.2 °F 31.2 °F 23.0 °F 52% 29.66 in 10.0 mi West 13.8 mph - N/A   Clear
4:55 AM 37.4 °F 28.9 °F 21.2 °F 52% 29.66 in 10.0 mi West 13.8 mph - N/A   Clear
5:15 AM 37.4 °F 27.5 °F 21.2 °F 52% 29.66 in 10.0 mi West 18.4 mph 23.0 mph N/A   Clear
5:35 AM 37.4 °F 26.9 °F 21.2 °F 52% 29.67 in 10.0 mi West 20.7 mph 28.8 mph N/A   Clear
5:55 AM 39.2 °F 29.6 °F 21.2 °F 49% 29.68 in 10.0 mi West 19.6 mph 25.3 mph N/A   Clear
6:15 AM 37.4 °F 27.8 °F 21.2 °F 52% 29.69 in 10.0 mi West 17.3 mph 26.5 mph N/A   Clear
6:55 AM 39.2 °F 29.8 °F 21.2 °F 49% 29.70 in 10.0 mi West 18.4 mph 23.0 mph N/A   Clear
7:15 AM 39.2 °F 29.6 °F 19.4 °F 45% 29.71 in 10.0 mi West 19.6 mph 27.6 mph N/A   Clear
7:35 AM 37.4 °F 27.5 °F 21.2 °F 52% 29.72 in 10.0 mi West 18.4 mph 26.5 mph N/A   Clear
7:55 AM 39.2 °F 30.2 °F 21.2 °F 49% 29.73 in 10.0 mi West 17.3 mph 23.0 mph N/A   Clear
8:15 AM 39.2 °F 30.5 °F 21.2 °F 49% 29.74 in 10.0 mi West 16.1 mph 21.9 mph N/A   Clear
8:35 AM 39.2 °F 29.3 °F 21.2 °F 49% 29.74 in 10.0 mi West 20.7 mph 25.3 mph N/A   Clear
8:55 AM 41.0 °F 32.8 °F 21.2 °F 45% 29.75 in 10.0 mi West 16.1 mph 21.9 mph N/A   Clear
9:15 AM 42.8 °F 34.5 °F 21.2 °F 42% 29.76 in 10.0 mi West 18.4 mph 23.0 mph N/A   Clear
9:35 AM 44.6 °F 37.2 °F 23.0 °F 43% 29.76 in 10.0 mi West 17.3 mph 28.8 mph N/A   Clear
9:55 AM 44.6 °F 35.9 °F 23.0 °F 43% 29.77 in 10.0 mi West 23.0 mph 29.9 mph N/A   Clear
10:15 AM 46.4 °F 38.5 °F 23.0 °F 40% 29.77 in 10.0 mi West 21.9 mph 33.4 mph N/A   Clear
10:35 AM 46.4 °F 37.9 °F 23.0 °F 40% 29.77 in 10.0 mi West 25.3 mph 31.1 mph N/A   Clear
10:55 AM 48.2 °F - 23.0 °F 37% 29.77 in 10.0 mi West 25.3 mph 34.5 mph N/A   Clear
11:16 AM 48.2 °F - 23.0 °F 37% 29.77 in 10.0 mi West 27.6 mph 35.7 mph N/A   Clear
11:35 AM 50.0 °F - 23.0 °F 35% 29.77 in 10.0 mi West 24.2 mph 33.4 mph N/A   Clear
11:55 AM 50.0 °F - 23.0 °F 35% 29.77 in 10.0 mi West 26.5 mph 38.0 mph N/A   Clear
12:15 PM 51.8 °F - 23.0 °F 33% 29.77 in 10.0 mi WNW 28.8 mph 42.6 mph N/A   Clear
12:35 PM 51.8 °F - 23.0 °F 33% 29.78 in 10.0 mi West 26.5 mph 38.0 mph N/A   Clear
12:55 PM 51.8 °F - 23.0 °F 33% 29.78 in 10.0 mi West 29.9 mph 40.3 mph N/A   Clear
1:15 PM 51.8 °F - 23.0 °F 33% 29.78 in 10.0 mi West 27.6 mph 35.7 mph N/A   Clear
1:35 PM 51.8 °F - 23.0 °F 33% 29.78 in 10.0 mi West 26.5 mph 34.5 mph N/A   Clear
2:15 PM 51.8 °F - 23.0 °F 33% 29.80 in 10.0 mi West 21.9 mph 33.4 mph N/A   Clear
2:35 PM 51.8 °F - 23.0 °F 33% 29.80 in 10.0 mi West 25.3 mph 28.8 mph N/A   Clear
2:55 PM 50.0 °F - 21.2 °F 32% 29.81 in 10.0 mi West 19.6 mph 29.9 mph N/A   Clear
3:15 PM 50.0 °F - 21.2 °F 32% 29.82 in 10.0 mi West 18.4 mph 26.5 mph N/A   Clear
3:35 PM 48.2 °F - 21.2 °F 34% 29.83 in 10.0 mi West 16.1 mph 23.0 mph N/A   Clear
3:55 PM 46.4 °F 40.4 °F 21.2 °F 37% 29.84 in 10.0 mi West 13.8 mph 20.7 mph N/A   Clear
4:15 PM 44.6 °F 38.1 °F 21.2 °F 39% 29.85 in 10.0 mi West 13.8 mph - N/A   Clear
4:35 PM 44.6 °F 38.8 °F 21.2 °F 39% 29.86 in 10.0 mi West 11.5 mph - N/A   Partly Cloudy
4:55 PM 39.2 °F 32.0 °F 19.4 °F 45% 29.86 in 10.0 mi West 11.5 mph - N/A   Partly Cloudy
5:15 PM 37.4 °F 29.8 °F 21.2 °F 52% 29.87 in 10.0 mi West 11.5 mph - N/A   Clear
5:35 PM 37.4 °F 30.3 °F 21.2 °F 52% 29.88 in 10.0 mi West 10.4 mph - N/A   Partly Cloudy
6:15 PM 33.8 °F 25.3 °F 21.2 °F 60% 29.89 in 10.0 mi West 11.5 mph - N/A   Partly Cloudy
6:35 PM 33.8 °F 24.8 °F 21.2 °F 60% 29.90 in 10.0 mi West 12.7 mph - N/A   Partly Cloudy
7:15 PM 37.4 °F 30.8 °F 23.0 °F 56% 29.92 in 10.0 mi West 9.2 mph - N/A   Clear
7:35 PM 33.8 °F 26.4 °F 19.4 °F 56% 29.92 in 10.0 mi West 9.2 mph - N/A   Scattered Clouds
7:55 PM 35.6 °F 27.1 °F 23.0 °F 60% 29.93 in 10.0 mi West 12.7 mph - N/A   Scattered Clouds
8:15 PM 39.2 °F 30.8 °F 24.8 °F 56% 29.93 in 10.0 mi West 15.0 mph - N/A   Mostly Cloudy
8:35 PM 39.2 °F 30.8 °F 21.2 °F 49% 29.94 in 10.0 mi West 15.0 mph - N/A   Partly Cloudy
8:55 PM 39.2 °F 30.8 °F 21.2 °F 49% 29.94 in 10.0 mi West 15.0 mph - N/A   Clear
9:15 PM 37.4 °F 28.9 °F 21.2 °F 52% 29.95 in 10.0 mi West 13.8 mph - N/A   Clear
9:35 PM 37.4 °F 28.5 °F 21.2 °F 52% 29.95 in 10.0 mi West 15.0 mph - N/A   Clear
9:55 PM 37.4 °F 28.5 °F 21.2 °F 52% 29.96 in 10.0 mi West 15.0 mph - N/A   Clear
10:15 PM 37.4 °F 28.2 °F 21.2 °F 52% 29.97 in 10.0 mi West 16.1 mph - N/A   Clear
10:35 PM 37.4 °F 28.5 °F 21.2 °F 52% 29.98 in 10.0 mi West 15.0 mph - N/A   Clear
10:55 PM 37.4 °F 28.9 °F 21.2 °F 52% 29.98 in 10.0 mi West 13.8 mph - N/A   Clear
11:15 PM 37.4 °F 29.3 °F 21.2 °F 52% 30.00 in 10.0 mi West 12.7 mph - N/A   Clear
11:35 PM 39.2 °F 30.5 °F 23.0 °F 52% 30.00 in 10.0 mi West 16.1 mph - N/A   Clear
11:55 PM 39.2 °F 30.8 °F 21.2 °F 49% 30.01 in 10.0 mi West 15.0 mph - N/A   Partly Cloudy